Terminal Aerodrome Forecast
Issued by NWS

Home | Current Version | Previous Version | Text Only | Print | Product List | Glossary On
Versions: 1 2 3 4 5 6 7 8 9 10 11 12 13 14 15 16 17
000
FTUS45 KBOI 241201 RRA
TAFBKE
TAF
KBKE 241201Z 2412/2512 11010KT P6SM VCSH OVC070
     FM241400 12013G20KT P6SM VCSH OVC050
      TEMPO 2414/2418 -SHRA OVC040
     FM242200 12006KT 6SM -RA BR OVC035
     FM250100 VRB05KT P6SM OVC080=

USA.gov is the U.S. government's official web portal to all federal, state and local government web resources and services.